createdAt,value
2023-04-13T00:00:53.132Z,8.53
2023-04-13T00:03:21.057Z,8.54
2023-04-13T00:05:49.089Z,8.53
2023-04-13T00:08:17.436Z,8.56
2023-04-13T00:10:46.336Z,8.59
2023-04-13T00:13:15.206Z,8.64
2023-04-13T00:15:44.003Z,8.68
2023-04-13T00:18:12.391Z,8.71
2023-04-13T00:20:42.125Z,8.72
2023-04-13T00:23:10.263Z,8.75
2023-04-13T00:25:37.885Z,8.79
2023-04-13T00:28:06.793Z,8.80
2023-04-13T00:30:34.571Z,8.84
2023-04-13T00:33:05.163Z,8.83
2023-04-13T00:35:32.899Z,8.84
2023-04-13T00:38:03.313Z,8.86
2023-04-13T00:40:30.918Z,8.85
2023-04-13T00:42:58.615Z,8.85
2023-04-13T00:45:26.596Z,8.85
2023-04-13T00:47:54.425Z,8.86
2023-04-13T00:50:22.109Z,8.88
2023-04-13T00:52:50.082Z,8.86
2023-04-13T00:55:21.675Z,8.83
2023-04-13T00:57:53.580Z,8.81
2023-04-13T01:00:22.488Z,8.74
2023-04-13T01:02:51.553Z,8.80
2023-04-13T01:05:19.978Z,8.72
2023-04-13T01:07:53.917Z,8.79
2023-04-13T01:10:27.965Z,8.78
2023-04-13T01:13:04.663Z,8.77
2023-04-13T01:15:40.357Z,8.58
2023-04-13T01:18:10.290Z,8.62
2023-04-13T01:20:41.752Z,8.61
2023-04-13T01:23:31.560Z,8.69
2023-04-13T01:26:02.580Z,8.62
2023-04-13T01:28:31.495Z,8.61
2023-04-13T01:31:01.729Z,8.56
2023-04-13T01:33:30.982Z,8.50
2023-04-13T01:36:02.422Z,8.48
2023-04-13T01:38:31.612Z,8.47
2023-04-13T01:41:01.469Z,8.53
2023-04-13T01:43:31.813Z,8.51
2023-04-13T01:46:16.259Z,8.63
2023-04-13T01:48:56.880Z,8.65
2023-04-13T01:51:48.604Z,8.66
2023-04-13T01:54:26.026Z,8.74
2023-04-13T01:56:57.410Z,8.74
2023-04-13T01:59:25.319Z,8.73
2023-04-13T02:01:53.008Z,8.78
2023-04-13T02:04:21.429Z,8.84
2023-04-13T02:06:51.800Z,8.84
2023-04-13T02:09:28.458Z,8.92
2023-04-13T02:11:56.423Z,9.02
2023-04-13T02:14:23.876Z,9.12
2023-04-13T02:16:54.020Z,9.22
2023-04-13T02:19:22.124Z,9.35
2023-04-13T02:21:49.520Z,9.49
2023-04-13T02:24:18.770Z,9.70
2023-04-13T02:26:46.365Z,10.28
2023-04-13T02:29:13.929Z,11.10
2023-04-13T02:31:44.574Z,11.89
2023-04-13T02:34:12.016Z,12.75
2023-04-13T02:36:40.862Z,13.53
2023-04-13T02:39:09.972Z,14.27
2023-04-13T02:44:38.966Z,15.86
2023-04-13T02:47:11.219Z,16.52
2023-04-13T02:49:57.462Z,17.20
2023-04-13T02:52:45.415Z,17.71
2023-04-13T02:55:13.426Z,18.48
2023-04-13T02:57:50.324Z,18.98
2023-04-13T03:00:18.834Z,19.53
2023-04-13T03:02:53.472Z,20.09
2023-04-13T03:05:22.916Z,20.61
2023-04-13T03:07:50.331Z,21.03
2023-04-13T03:10:19.287Z,21.44
2023-04-13T03:12:48.209Z,21.87
2023-04-13T03:15:18.469Z,22.31
2023-04-13T03:17:46.196Z,22.72
2023-04-13T03:20:23.860Z,23.06
2023-04-13T03:22:57.428Z,23.33
2023-04-13T03:25:26.356Z,23.54
2023-04-13T03:27:53.902Z,23.67
2023-04-13T03:30:23.679Z,23.83
2023-04-13T03:33:01.196Z,24.18
2023-04-13T03:35:32.558Z,24.63
2023-04-13T03:38:02.635Z,24.59
2023-04-13T03:40:39.016Z,24.32
2023-04-13T03:43:06.894Z,24.07
2023-04-13T03:45:38.292Z,23.78
2023-04-13T03:48:11.232Z,23.43
2023-04-13T03:50:38.799Z,23.16
2023-04-13T03:53:08.266Z,22.83
2023-04-13T03:55:37.978Z,22.60
2023-04-13T03:58:07.987Z,22.65
2023-04-13T04:00:36.063Z,22.66
2023-04-13T04:03:11.973Z,22.51
2023-04-13T04:05:52.072Z,22.74
2023-04-13T04:08:19.675Z,22.97
2023-04-13T04:10:48.648Z,23.20
2023-04-13T04:13:17.710Z,23.13
2023-04-13T04:15:50.265Z,23.01
2023-04-13T04:18:18.157Z,22.88
2023-04-13T04:20:45.754Z,22.74
2023-04-13T04:23:14.295Z,22.58
2023-04-13T04:25:52.232Z,22.48
2023-04-13T04:28:20.317Z,22.37
2023-04-13T04:30:54.617Z,22.33
2023-04-13T04:33:25.918Z,22.24
2023-04-13T04:35:54.579Z,22.06
2023-04-13T04:38:27.808Z,22.30
2023-04-13T04:40:58.002Z,21.67
2023-04-13T04:43:27.486Z,21.40
2023-04-13T04:45:58.025Z,21.13
2023-04-13T04:48:27.266Z,20.88
2023-04-13T04:50:58.590Z,20.68
2023-04-13T04:53:31.309Z,21.01
2023-04-13T04:55:58.918Z,21.81
2023-04-13T04:58:43.601Z,22.58
2023-04-13T05:01:11.248Z,23.26
2023-04-13T05:03:39.769Z,24.01
2023-04-13T05:06:33.097Z,24.55
2023-04-13T05:09:02.776Z,25.12
2023-04-13T05:11:32.549Z,25.70
2023-04-13T05:14:02.559Z,26.15
2023-04-13T05:16:31.070Z,26.54
2023-04-13T05:19:08.210Z,26.99
2023-04-13T05:21:53.422Z,27.44
2023-04-13T05:24:22.488Z,27.78
2023-04-13T05:26:51.966Z,28.24
2023-04-13T05:29:22.962Z,28.77
2023-04-13T05:31:51.413Z,29.30
2023-04-13T05:34:20.208Z,29.66
2023-04-13T05:37:06.408Z,30.01
2023-04-13T05:39:34.179Z,30.27
2023-04-13T05:42:02.227Z,30.42
2023-04-13T05:44:33.089Z,30.52
2023-04-13T05:47:02.509Z,30.94
2023-04-13T05:49:33.353Z,30.92
2023-04-13T05:52:01.277Z,31.34
2023-04-13T05:54:40.142Z,31.56
2023-04-13T05:57:08.001Z,31.88
2023-04-13T05:59:38.703Z,32.10
2023-04-13T06:02:07.205Z,32.21
2023-04-13T06:04:36.806Z,32.63
2023-04-13T06:07:07.449Z,32.78
2023-04-13T06:09:35.062Z,33.01
2023-04-13T06:12:03.079Z,33.24
2023-04-13T06:14:30.651Z,33.53
2023-04-13T06:16:58.332Z,33.81
2023-04-13T06:19:29.166Z,33.89
2023-04-13T06:21:57.404Z,34.70
2023-04-13T06:24:24.828Z,35.13
2023-04-13T06:26:52.588Z,35.41
2023-04-13T06:29:20.855Z,35.62
2023-04-13T06:32:01.615Z,35.92
2023-04-13T06:34:29.209Z,36.43
2023-04-13T06:36:57.819Z,36.62
2023-04-13T06:39:28.799Z,36.77
2023-04-13T06:42:01.373Z,37.09
2023-04-13T06:45:01.335Z,36.30
2023-04-13T06:47:36.363Z,37.20
2023-04-13T06:50:07.005Z,37.30
2023-04-13T06:52:40.685Z,36.66
2023-04-13T06:55:08.654Z,36.54
2023-04-13T06:57:40.869Z,35.99
2023-04-13T07:00:25.984Z,35.96
2023-04-13T07:02:58.920Z,35.15
2023-04-13T07:05:26.836Z,34.14
2023-04-13T07:07:58.788Z,33.39
2023-04-13T07:10:26.957Z,34.01
2023-04-13T07:12:56.892Z,33.75
2023-04-13T07:15:27.752Z,32.91
2023-04-13T07:17:56.262Z,32.20
2023-04-13T07:20:23.870Z,31.44
2023-04-13T07:22:51.620Z,31.41
2023-04-13T07:25:19.340Z,30.92
2023-04-13T07:27:47.418Z,30.77
2023-04-13T07:30:16.737Z,30.86
2023-04-13T07:32:47.093Z,30.90
2023-04-13T07:35:14.800Z,30.82
2023-04-13T07:37:44.833Z,30.65
2023-04-13T07:40:15.356Z,30.35
2023-04-13T07:42:50.303Z,30.00
2023-04-13T07:45:20.290Z,29.51
2023-04-13T07:47:48.833Z,29.13
2023-04-13T07:50:18.252Z,28.88
2023-04-13T07:52:47.528Z,28.44
2023-04-13T07:55:20.061Z,28.29
2023-04-13T07:57:49.462Z,28.14
2023-04-13T08:00:20.720Z,27.94
2023-04-13T08:02:54.681Z,27.66
2023-04-13T08:05:26.400Z,27.46
2023-04-13T08:07:54.118Z,26.93
2023-04-13T08:10:22.006Z,26.79
2023-04-13T08:12:49.564Z,26.62
2023-04-13T08:15:19.637Z,26.44
2023-04-13T08:17:47.633Z,26.29
2023-04-13T08:20:16.325Z,25.91
2023-04-13T08:22:46.622Z,25.92
2023-04-13T08:25:14.126Z,25.73
2023-04-13T08:27:41.914Z,25.62
2023-04-13T08:30:14.764Z,25.41
2023-04-13T08:32:54.177Z,25.26
2023-04-13T08:35:23.724Z,25.21
2023-04-13T08:37:54.155Z,25.13
2023-04-13T08:40:22.948Z,25.02
2023-04-13T08:42:56.265Z,24.96
2023-04-13T08:45:24.198Z,24.55
2023-04-13T08:47:51.852Z,24.36
2023-04-13T08:50:23.247Z,24.33
2023-04-13T08:52:54.549Z,24.22
2023-04-13T08:55:24.245Z,24.16
2023-04-13T08:57:57.270Z,24.20
2023-04-13T09:00:25.644Z,23.94
2023-04-13T09:03:05.712Z,24.01
2023-04-13T09:05:41.590Z,23.81
2023-04-13T09:08:16.261Z,23.74
2023-04-13T09:11:00.706Z,23.70
2023-04-13T09:13:28.308Z,23.55
2023-04-13T09:15:57.107Z,23.53
2023-04-13T09:18:52.624Z,23.41
2023-04-13T09:21:20.449Z,23.26
2023-04-13T09:23:58.970Z,23.38
2023-04-13T09:26:27.365Z,22.95
2023-04-13T09:28:58.470Z,22.92
2023-04-13T09:31:26.332Z,22.70
2023-04-13T09:33:53.876Z,22.57
2023-04-13T09:36:22.962Z,22.67
2023-04-13T09:38:56.356Z,22.75
2023-04-13T09:41:38.856Z,22.78
2023-04-13T09:44:21.466Z,22.72
2023-04-13T09:47:02.397Z,22.68
2023-04-13T09:49:57.715Z,22.63
2023-04-13T09:52:27.093Z,22.29
2023-04-13T09:54:57.539Z,22.26
2023-04-13T09:57:29.555Z,22.20
2023-04-13T10:00:01.370Z,22.01
2023-04-13T10:02:39.993Z,21.96
2023-04-13T10:05:10.523Z,22.05
2023-04-13T10:07:38.494Z,21.94
2023-04-13T10:10:09.333Z,21.89
2023-04-13T10:12:48.008Z,22.11
2023-04-13T10:18:37.104Z,21.95
2023-04-13T10:21:07.458Z,21.83
2023-04-13T10:23:35.676Z,21.79
2023-04-13T10:26:04.395Z,21.77
2023-04-13T10:28:43.535Z,21.95
2023-04-13T10:31:11.151Z,21.71
2023-04-13T10:33:57.582Z,21.86
2023-04-13T10:36:38.687Z,21.62
2023-04-13T10:39:06.563Z,21.13
2023-04-13T10:41:34.543Z,20.90
2023-04-13T10:44:09.246Z,20.80
2023-04-13T10:46:37.007Z,20.36
2023-04-13T10:49:05.425Z,20.32
2023-04-13T10:51:59.394Z,20.74
2023-04-13T10:54:30.123Z,20.15
2023-04-13T10:57:03.998Z,20.25
2023-04-13T10:59:56.179Z,20.24
2023-04-13T11:02:27.010Z,19.83
2023-04-13T11:04:55.225Z,19.66
2023-04-13T11:07:26.336Z,19.64
2023-04-13T11:12:30.730Z,19.37
2023-04-13T11:14:58.296Z,19.03
2023-04-13T11:17:25.864Z,18.90
2023-04-13T11:19:55.102Z,18.64
2023-04-13T11:22:28.140Z,18.59
2023-04-13T11:25:09.313Z,18.66
2023-04-13T11:27:38.279Z,18.15
2023-04-13T11:30:09.952Z,18.10
2023-04-13T11:32:41.878Z,18.11
2023-04-13T11:35:16.894Z,17.88
2023-04-13T11:37:49.119Z,17.73
2023-04-13T11:40:21.650Z,17.51
2023-04-13T11:43:00.398Z,17.45
2023-04-13T11:45:29.700Z,17.30
2023-04-13T11:47:58.301Z,17.01
2023-04-13T11:50:26.423Z,16.74
2023-04-13T11:52:57.414Z,16.54
2023-04-13T11:55:25.912Z,16.39
2023-04-13T11:57:54.679Z,16.10
2023-04-13T12:00:24.805Z,15.86
2023-04-13T12:05:33.607Z,15.60
2023-04-13T12:08:04.619Z,15.28
2023-04-13T12:10:46.708Z,14.86
2023-04-13T12:13:35.987Z,14.61
2023-04-13T12:16:11.210Z,14.11
2023-04-13T12:18:49.596Z,14.16
2023-04-13T12:21:20.305Z,14.18
2023-04-13T12:23:58.557Z,14.32
2023-04-13T12:29:09.461Z,13.53
2023-04-13T12:31:39.501Z,13.16
2023-04-13T12:34:11.116Z,12.73
2023-04-13T12:36:38.603Z,12.59
2023-04-13T12:39:07.103Z,12.05
2023-04-13T12:41:34.635Z,11.94
2023-04-13T12:44:02.116Z,12.59
2023-04-13T12:46:29.962Z,12.04
2023-04-13T12:48:57.613Z,11.77
2023-04-13T12:51:26.529Z,11.47
2023-04-13T12:53:53.910Z,11.17
2023-04-13T12:56:21.391Z,10.77
2023-04-13T12:58:49.003Z,10.62
2023-04-13T13:01:16.524Z,10.82
2023-04-13T13:03:45.612Z,10.62
2023-04-13T13:06:13.112Z,10.73
2023-04-13T13:08:40.666Z,10.59
2023-04-13T13:11:11.519Z,10.57
2023-04-13T13:13:39.020Z,9.96
2023-04-13T13:16:06.939Z,9.75
2023-04-13T13:18:47.043Z,9.85
2023-04-13T13:21:17.621Z,9.74
2023-04-13T13:23:45.996Z,9.44
2023-04-13T13:26:23.765Z,9.43
2023-04-13T13:28:52.762Z,8.87
2023-04-13T13:31:20.425Z,8.86
2023-04-13T13:33:48.038Z,8.74
2023-04-13T13:36:15.681Z,8.67
2023-04-13T13:38:43.683Z,8.41
2023-04-13T13:41:12.202Z,8.33
2023-04-13T13:43:40.317Z,7.98
2023-04-13T13:46:08.009Z,7.98
2023-04-13T13:48:38.125Z,7.98
2023-04-13T13:51:36.078Z,8.11
2023-04-13T13:54:06.043Z,8.51
2023-04-13T13:56:33.813Z,7.67
2023-04-13T13:59:01.747Z,7.58
2023-04-13T14:01:32.534Z,7.28
2023-04-13T14:04:02.454Z,7.05
2023-04-13T14:06:32.748Z,7.19
2023-04-13T14:09:00.767Z,6.99
2023-04-13T14:11:28.818Z,7.00
2023-04-13T14:13:56.570Z,6.80
2023-04-13T14:16:26.226Z,6.83
2023-04-13T14:18:56.094Z,6.76
2023-04-13T14:21:23.801Z,6.71
2023-04-13T14:23:54.474Z,6.58
2023-04-13T14:26:24.224Z,6.38
2023-04-13T14:28:52.160Z,6.13
2023-04-13T14:31:19.843Z,6.23
2023-04-13T14:33:47.539Z,6.23
2023-04-13T14:36:17.221Z,6.15
2023-04-13T14:38:44.927Z,6.10
2023-04-13T14:41:12.544Z,6.33
2023-04-13T14:43:40.286Z,6.28
2023-04-13T14:46:09.230Z,5.90
2023-04-13T14:48:37.045Z,5.88
2023-04-13T14:51:04.778Z,5.78
2023-04-13T14:53:32.488Z,5.58
2023-04-13T14:56:00.222Z,5.64
2023-04-13T14:58:29.313Z,5.51
2023-04-13T15:00:57.048Z,5.31
2023-04-13T15:03:24.734Z,5.46
2023-04-13T15:06:29.222Z,5.65
2023-04-13T15:08:56.804Z,5.57
2023-04-13T15:11:27.604Z,5.55
2023-04-13T15:13:55.270Z,5.48
2023-04-13T15:16:24.605Z,5.15
2023-04-13T15:18:52.242Z,5.23
2023-04-13T15:21:19.904Z,4.90
2023-04-13T15:23:47.622Z,4.87
2023-04-13T15:26:19.048Z,4.87
2023-04-13T15:28:47.993Z,4.71
2023-04-13T15:31:15.856Z,4.68
2023-04-13T15:33:43.564Z,4.88
2023-04-13T15:36:16.234Z,4.75
2023-04-13T15:39:03.967Z,4.84
2023-04-13T15:41:35.013Z,4.60
2023-04-13T15:44:03.840Z,4.55
2023-04-13T15:46:37.540Z,4.54
2023-04-13T15:49:05.238Z,4.18
2023-04-13T15:51:33.223Z,4.24
2023-04-13T15:54:03.835Z,4.05
2023-04-13T15:56:31.747Z,3.86
2023-04-13T15:58:59.660Z,4.01
2023-04-13T16:01:27.974Z,3.89
2023-04-13T16:03:56.098Z,3.89
2023-04-13T16:06:24.093Z,4.06
2023-04-13T16:08:51.615Z,4.22
2023-04-13T16:11:21.158Z,4.23
2023-04-13T16:13:50.052Z,4.00
2023-04-13T16:16:21.334Z,4.19
2023-04-13T16:18:49.612Z,3.85
2023-04-13T16:21:19.802Z,3.62
2023-04-13T16:23:47.601Z,3.78
2023-04-13T16:26:15.144Z,3.54
2023-04-13T16:28:42.913Z,3.38
2023-04-13T16:31:11.502Z,3.17
2023-04-13T16:33:56.094Z,3.07
2023-04-13T16:36:27.670Z,3.12
2023-04-13T16:38:55.326Z,3.18
2023-04-13T16:41:23.835Z,3.11
2023-04-13T16:43:51.610Z,2.95
2023-04-13T16:46:19.280Z,3.13
2023-04-13T16:48:46.966Z,2.95
2023-04-13T16:51:14.589Z,2.92
2023-04-13T16:53:44.438Z,2.96
2023-04-13T16:56:13.850Z,2.71
2023-04-13T16:58:43.398Z,2.70
2023-04-13T17:01:11.168Z,2.64
2023-04-13T17:03:39.018Z,2.45
2023-04-13T17:06:07.472Z,2.45
2023-04-13T17:08:35.024Z,2.36
2023-04-13T17:11:02.944Z,2.40
2023-04-13T17:13:30.525Z,2.44
2023-04-13T17:15:58.167Z,2.33
2023-04-13T17:18:26.236Z,2.14
2023-04-13T17:20:55.282Z,2.04
2023-04-13T17:23:23.773Z,2.25
2023-04-13T17:25:54.653Z,2.30
2023-04-13T17:28:23.728Z,2.27
2023-04-13T17:30:51.678Z,2.50
2023-04-13T17:33:19.420Z,2.63
2023-04-13T17:35:47.822Z,2.54
2023-04-13T17:38:15.619Z,2.46
2023-04-13T17:40:43.326Z,2.19
2023-04-13T17:43:11.267Z,2.19
2023-04-13T17:45:40.454Z,1.90
2023-04-13T17:48:08.777Z,1.82
2023-04-13T17:50:36.492Z,1.80
2023-04-13T17:53:04.792Z,1.75
2023-04-13T17:55:33.750Z,1.59
2023-04-13T17:58:01.453Z,2.12
2023-04-13T18:00:29.464Z,1.94
2023-04-13T18:02:58.381Z,1.93
2023-04-13T18:05:27.077Z,1.68
2023-04-13T18:07:54.830Z,1.78
2023-04-13T18:10:22.434Z,1.88
2023-04-13T18:12:50.179Z,1.81
2023-04-13T18:15:21.165Z,1.75
2023-04-13T18:17:48.894Z,1.59
2023-04-13T18:20:16.494Z,1.62
2023-04-13T18:22:44.425Z,1.71
2023-04-13T18:25:15.183Z,1.90
2023-04-13T18:27:44.094Z,2.01
2023-04-13T18:30:12.497Z,1.61
2023-04-13T18:32:40.248Z,1.62
2023-04-13T18:35:08.262Z,1.64
2023-04-13T18:37:35.903Z,1.23
2023-04-13T18:40:05.664Z,1.27
2023-04-13T18:42:33.842Z,1.22
2023-04-13T18:45:01.425Z,1.10
2023-04-13T18:47:30.697Z,1.11
2023-04-13T18:49:58.615Z,1.26
2023-04-13T18:52:26.674Z,1.31
2023-04-13T18:54:54.726Z,1.45
2023-04-13T18:57:28.962Z,1.48
2023-04-13T19:00:11.822Z,1.44
2023-04-13T19:02:42.615Z,1.43
2023-04-13T19:05:12.824Z,1.26
2023-04-13T19:07:47.521Z,1.27
2023-04-13T19:10:15.098Z,1.12
2023-04-13T19:12:43.037Z,1.13
2023-04-13T19:15:11.278Z,1.16
2023-04-13T19:17:39.006Z,1.16
2023-04-13T19:20:10.365Z,0.85
2023-04-13T19:22:38.789Z,0.89
2023-04-13T19:25:14.284Z,0.71
2023-04-13T19:27:44.910Z,0.74
2023-04-13T19:30:14.008Z,0.91
2023-04-13T19:32:44.878Z,1.17
2023-04-13T19:35:13.164Z,1.24
2023-04-13T19:37:42.108Z,1.06
2023-04-13T19:40:10.653Z,0.92
2023-04-13T19:42:38.340Z,0.77
2023-04-13T19:45:06.431Z,0.26
2023-04-13T19:47:33.838Z,0.43
2023-04-13T19:50:01.485Z,0.63
2023-04-13T19:52:30.025Z,0.83
2023-04-13T19:54:57.694Z,0.59
2023-04-13T19:57:25.346Z,0.82
2023-04-13T19:59:53.004Z,0.59
2023-04-13T20:02:20.774Z,0.62
2023-04-13T20:04:50.553Z,0.48
2023-04-13T20:07:18.567Z,0.48
2023-04-13T20:09:46.684Z,0.53
2023-04-13T20:12:14.487Z,0.51
2023-04-13T20:14:42.906Z,0.46
2023-04-13T20:17:11.471Z,0.32
2023-04-13T20:19:39.151Z,0.22
2023-04-13T20:22:07.347Z,0.24
2023-04-13T20:24:34.927Z,0.43
2023-04-13T20:27:02.364Z,0.20
2023-04-13T20:29:30.069Z,0.08
2023-04-13T20:31:57.965Z,0.20
2023-04-13T20:34:27.767Z,0.21
2023-04-13T20:36:56.755Z,-0.03
2023-04-13T20:39:30.150Z,-0.14
2023-04-13T20:41:57.914Z,-0.12
2023-04-13T20:44:26.117Z,-0.01
2023-04-13T20:46:57.313Z,-0.16
2023-04-13T20:49:24.938Z,-0.03
2023-04-13T20:51:57.587Z,0.19
2023-04-13T20:54:25.087Z,-0.28
2023-04-13T20:56:52.504Z,-0.40
2023-04-13T20:59:20.033Z,-0.37
2023-04-13T21:01:49.108Z,-0.33
2023-04-13T21:04:17.097Z,-0.32
2023-04-13T21:06:45.248Z,-0.54
2023-04-13T21:09:14.247Z,-0.51
2023-04-13T21:11:44.933Z,-0.54
2023-04-13T21:14:12.397Z,-0.57
2023-04-13T21:16:39.869Z,-0.72
2023-04-13T21:19:07.499Z,-0.81
2023-04-13T21:21:36.263Z,-0.94
2023-04-13T21:24:03.727Z,-0.87
2023-04-13T21:26:31.278Z,-0.89
2023-04-13T21:28:58.711Z,-1.15
2023-04-13T21:31:26.206Z,-1.08
2023-04-13T21:33:55.003Z,-1.06
2023-04-13T21:38:53.239Z,-0.98
2023-04-13T21:41:21.882Z,-0.99
2023-04-13T21:43:49.414Z,-1.05
2023-04-13T21:46:17.342Z,-0.98
2023-04-13T21:48:44.809Z,-0.90
2023-04-13T21:51:12.363Z,-1.06
2023-04-13T21:53:39.828Z,-0.98
2023-04-13T21:56:07.753Z,-0.91
2023-04-13T21:58:40.476Z,-0.89
2023-04-13T22:01:08.654Z,-1.03
2023-04-13T22:03:41.504Z,-0.99
2023-04-13T22:06:11.419Z,-1.05
2023-04-13T22:08:39.421Z,-1.00
2023-04-13T22:11:07.581Z,-1.15
2023-04-13T22:13:35.109Z,-1.17
2023-04-13T22:16:02.819Z,-1.17
2023-04-13T22:18:30.392Z,-1.17
2023-04-13T22:21:00.152Z,-1.34
2023-04-13T22:23:27.818Z,-1.30
2023-04-13T22:26:01.891Z,-1.25
2023-04-13T22:28:31.311Z,-1.26
2023-04-13T22:31:05.632Z,-1.42
2023-04-13T22:33:36.321Z,-0.98
2023-04-13T22:36:04.742Z,-1.21
2023-04-13T22:38:32.719Z,-1.49
2023-04-13T22:41:06.676Z,-1.60
2023-04-13T22:43:34.055Z,-1.47
2023-04-13T22:46:01.666Z,-1.76
2023-04-13T22:48:30.012Z,-1.80
2023-04-13T22:51:01.688Z,-1.77
2023-04-13T22:53:29.801Z,-1.66
2023-04-13T22:55:57.387Z,-1.81
2023-04-13T22:58:24.819Z,-1.85
2023-04-13T23:00:52.414Z,-1.85
2023-04-13T23:03:20.265Z,-1.87
2023-04-13T23:05:47.883Z,-1.94
2023-04-13T23:08:15.290Z,-1.92
2023-04-13T23:10:42.793Z,-2.10
2023-04-13T23:13:10.199Z,-2.12
2023-04-13T23:15:38.280Z,-2.18
2023-04-13T23:18:06.080Z,-2.10
2023-04-13T23:20:33.656Z,-2.26
2023-04-13T23:23:01.532Z,-2.18
2023-04-13T23:25:29.100Z,-2.51
2023-04-13T23:27:56.629Z,-2.59
2023-04-13T23:30:24.060Z,-2.77
2023-04-13T23:32:51.704Z,-2.73
2023-04-13T23:35:19.291Z,-2.70
2023-04-13T23:37:46.906Z,-2.72
2023-04-13T23:40:14.478Z,-2.61
2023-04-13T23:42:42.129Z,-2.80
2023-04-13T23:45:09.864Z,-2.66
2023-04-13T23:47:38.210Z,-2.59
2023-04-13T23:50:06.418Z,-2.81
2023-04-13T23:52:34.381Z,-2.74
2023-04-13T23:55:01.939Z,-2.77
2023-04-13T23:57:36.583Z,-2.51
